Time;durP1;ratioP1;P1;durP2;ratioP2;P2;SDS_P1;SDS_P2;PMS_P1;PMS_P2;Temp;Humidity;BMP_temperature;BMP_pressure;BME280_temperature;BME280_humidity;BME280_pressure;Samples;Min_cycle;Max_cycle;Signal;HPM_P1;HPM_P2
2021/04/11 00:03:47;;;;;;;8.40;6.20;;;13.30;89.80;;;;;;8409782;28;20463;-75
2021/04/11 00:07:52;;;;;;;7.23;6.63;;;13.20;89.80;;;;;;8420194;28;20486;-75
2021/04/11 00:11:53;;;;;;;6.30;5.47;;;13.30;90.00;;;;;;8377639;28;20449;-76
2021/04/11 00:15:57;;;;;;;6.20;5.60;;;13.30;89.90;;;;;;8412744;28;20445;-75
2021/04/11 00:19:59;;;;;;;7.43;5.10;;;13.30;90.00;;;;;;8400217;28;20447;-77
2021/04/11 00:24:00;;;;;;;5.37;4.90;;;13.40;90.00;;;;;;8359814;28;20466;-75
2021/04/11 00:28:10;;;;;;;7.40;4.87;;;13.40;90.00;;;;;;8414585;28;20461;-75
2021/04/11 00:32:12;;;;;;;6.03;4.33;;;13.40;89.70;;;;;;8394905;28;20464;-75
2021/04/11 00:36:17;;;;;;;7.47;4.67;;;13.40;89.60;;;;;;8400246;28;20958;-76
2021/04/11 00:40:36;;;;;;;4.97;4.57;;;13.40;89.70;;;;;;8427394;28;20440;-75
2021/04/11 00:44:43;;;;;;;6.60;3.70;;;13.50;89.60;;;;;;8399277;28;20576;-76
2021/04/11 00:48:45;;;;;;;6.00;4.90;;;13.40;89.60;;;;;;8400838;28;20447;-74
2021/04/11 00:52:46;;;;;;;4.90;3.80;;;13.40;89.90;;;;;;8402775;28;20474;-75
2021/04/11 00:56:47;;;;;;;3.90;3.60;;;13.40;90.00;;;;;;8398170;28;20440;-74
2021/04/11 01:00:50;;;;;;;4.43;3.70;;;13.40;90.10;;;;;;8403489;28;20189;-75
2021/04/11 01:04:52;;;;;;;3.30;3.00;;;13.40;90.10;;;;;;8426114;28;20869;-75
2021/04/11 01:08:55;;;;;;;4.57;4.17;;;13.50;90.20;;;;;;8399069;28;20556;-75
2021/04/11 01:12:56;;;;;;;3.70;3.40;;;13.50;90.30;;;;;;8413692;28;20471;-74
2021/04/11 01:16:57;;;;;;;3.90;3.67;;;13.50;90.40;;;;;;8412923;28;20933;-75
2021/04/11 01:21:04;;;;;;;4.63;4.20;;;13.50;90.50;;;;;;8404354;28;20484;-74
2021/04/11 01:25:09;;;;;;;3.60;3.40;;;13.50;90.50;;;;;;8397796;28;20996;-74
2021/04/11 01:29:11;;;;;;;5.17;4.70;;;13.50;90.50;;;;;;8410397;28;20860;-74
2021/04/11 01:33:17;;;;;;;5.60;3.90;;;13.50;90.50;;;;;;8408892;28;20526;-75
2021/04/11 01:37:20;;;;;;;4.53;4.10;;;13.60;90.50;;;;;;8415439;28;20444;-75
2021/04/11 01:41:43;;;;;;;5.53;5.00;;;13.60;90.60;;;;;;8402238;28;20471;-75
2021/04/11 01:45:45;;;;;;;5.03;4.63;;;13.60;90.70;;;;;;8413349;28;20478;-74
2021/04/11 01:49:46;;;;;;;5.50;4.83;;;13.60;90.70;;;;;;8403565;28;20447;-75
2021/04/11 01:53:48;;;;;;;4.70;4.20;;;13.60;90.80;;;;;;8405246;28;20447;-75
2021/04/11 01:57:53;;;;;;;6.20;4.40;;;13.50;90.80;;;;;;8403085;28;20475;-75
2021/04/11 02:01:55;;;;;;;9.00;5.53;;;13.50;90.90;;;;;;8415742;28;20532;-75
2021/04/11 02:06:00;;;;;;;4.70;4.30;;;13.50;91.00;;;;;;8410120;28;20575;-75
2021/04/11 02:10:07;;;;;;;10.23;4.90;;;13.50;91.10;;;;;;8407571;28;21009;-75
2021/04/11 02:14:10;;;;;;;4.63;4.33;;;13.50;91.10;;;;;;8401626;28;20443;-75
2021/04/11 02:18:12;;;;;;;7.60;5.30;;;13.50;91.10;;;;;;8400671;28;20438;-75
2021/04/11 02:22:27;;;;;;;7.77;5.40;;;13.50;91.10;;;;;;8396141;28;20507;-75
2021/04/11 02:26:30;;;;;;;4.60;4.10;;;13.50;91.10;;;;;;8422028;28;20450;-75
2021/04/11 02:30:31;;;;;;;6.00;5.10;;;13.50;91.10;;;;;;8397547;28;20540;-75
2021/04/11 02:34:33;;;;;;;6.97;6.33;;;13.50;91.10;;;;;;8402076;28;20193;-75
2021/04/11 02:38:35;;;;;;;6.33;5.70;;;13.50;91.00;;;;;;8397457;28;20449;-75
2021/04/11 02:42:36;;;;;;;5.13;4.60;;;13.50;91.10;;;;;;8397429;28;20447;-75
2021/04/11 02:46:39;;;;;;;7.30;5.30;;;13.50;91.00;;;;;;8405302;28;20549;-75
2021/04/11 02:50:43;;;;;;;7.43;5.33;;;13.50;90.90;;;;;;8399596;28;20433;-75
2021/04/11 02:54:44;;;;;;;6.30;5.50;;;13.50;90.90;;;;;;8403500;28;20956;-75
2021/04/11 02:58:49;;;;;;;7.43;5.70;;;13.60;91.00;;;;;;8407987;28;20979;-76
2021/04/11 03:02:52;;;;;;;8.93;6.87;;;13.60;91.00;;;;;;8406270;28;20469;-76
2021/04/11 03:07:01;;;;;;;7.87;7.07;;;13.60;91.40;;;;;;8400494;28;20581;-76
2021/04/11 03:11:17;;;;;;;12.30;8.10;;;13.60;91.30;;;;;;8404840;28;20468;-76
2021/04/11 03:15:20;;;;;;;7.60;6.83;;;13.50;91.50;;;;;;8396775;28;20958;-75
2021/04/11 03:19:39;;;;;;;9.07;7.90;;;13.50;91.60;;;;;;8413292;28;20517;-75
2021/04/11 03:23:41;;;;;;;11.63;7.87;;;13.40;91.80;;;;;;8395491;28;20477;-76
2021/04/11 03:28:04;;;;;;;8.77;7.50;;;13.40;92.00;;;;;;8400959;28;20500;-76
2021/04/11 03:32:14;;;;;;;9.53;8.47;;;13.40;92.50;;;;;;8412442;28;20430;-76
2021/04/11 03:36:18;;;;;;;11.50;8.73;;;13.30;92.90;;;;;;8419330;28;20438;-75
2021/04/11 03:40:25;;;;;;;12.90;8.47;;;13.20;93.10;;;;;;8400243;28;21077;-74
2021/04/11 03:44:33;;;;;;;16.63;9.13;;;13.10;93.40;;;;;;8409997;28;20452;-75
2021/04/11 03:48:43;;;;;;;11.57;8.57;;;13.10;93.50;;;;;;8403327;28;20498;-75
2021/04/11 03:52:53;;;;;;;9.77;8.87;;;13.00;93.60;;;;;;8412727;28;20503;-75
2021/04/11 03:57:09;;;;;;;21.83;14.13;;;13.00;93.70;;;;;;8401345;28;21001;-75
2021/04/11 04:01:17;;;;;;;20.43;14.30;;;12.70;92.20;;;;;;8404163;28;20447;-75
2021/04/11 04:05:22;;;;;;;18.50;12.10;;;12.20;92.00;;;;;;8401730;28;20554;-75
2021/04/11 04:09:27;;;;;;;18.57;13.70;;;11.70;92.10;;;;;;8405216;28;20452;-75
2021/04/11 04:14:05;;;;;;;22.77;13.47;;;11.30;92.30;;;;;;8400785;28;20440;-75
2021/04/11 04:18:18;;;;;;;24.43;14.60;;;11.00;92.60;;;;;;8415952;28;20458;-74
2021/04/11 04:22:43;;;;;;;23.17;14.50;;;10.70;93.00;;;;;;8394825;28;20458;-75
2021/04/11 04:27:32;;;;;;;19.57;12.63;;;10.60;93.10;;;;;;8396589;28;20574;-75
2021/04/11 04:31:55;;;;;;;24.17;14.20;;;10.40;93.20;;;;;;8384687;28;20440;-75
2021/04/11 04:35:58;;;;;;;28.87;15.07;;;10.30;93.40;;;;;;8399257;28;20446;-75
2021/04/11 04:40:09;;;;;;;24.77;15.00;;;10.20;93.50;;;;;;8396917;28;20514;-75
2021/04/11 04:44:32;;;;;;;26.90;15.93;;;10.10;93.40;;;;;;8392888;28;20999;-75
2021/04/11 04:48:39;;;;;;;27.20;14.47;;;10.00;93.50;;;;;;8397858;28;20450;-76
2021/04/11 04:52:45;;;;;;;26.00;14.47;;;9.90;93.70;;;;;;8395681;28;20434;-76
2021/04/11 04:56:55;;;;;;;26.33;14.97;;;9.90;93.70;;;;;;8392116;28;21029;-75
2021/04/11 05:01:20;;;;;;;24.63;14.63;;;9.80;93.80;;;;;;8412746;28;20787;-75
2021/04/11 05:05:23;;;;;;;18.27;12.40;;;9.70;93.90;;;;;;8388561;28;20469;-75
2021/04/11 05:09:35;;;;;;;18.67;10.17;;;9.70;93.90;;;;;;8406470;28;20508;-76
2021/04/11 05:13:52;;;;;;;11.27;7.20;;;9.60;93.80;;;;;;8411332;28;20463;-75
2021/04/11 05:18:02;;;;;;;16.20;9.03;;;9.50;93.40;;;;;;8423406;28;20434;-75
2021/04/11 05:22:24;;;;;;;16.03;9.73;;;9.30;93.30;;;;;;8407343;28;20439;-75
2021/04/11 05:26:41;;;;;;;15.70;9.60;;;9.30;93.40;;;;;;8389535;28;20504;-75
2021/04/11 05:30:58;;;;;;;15.60;8.80;;;9.20;93.50;;;;;;8402660;28;21139;-76
2021/04/11 05:35:00;;;;;;;19.13;11.50;;;9.10;93.50;;;;;;8391971;28;20443;-76
2021/04/11 05:39:25;;;;;;;26.90;13.13;;;9.10;93.60;;;;;;8419907;28;20441;-76
2021/04/11 05:44:02;;;;;;;19.53;11.10;;;9.00;93.60;;;;;;8401606;28;20458;-76
2021/04/11 05:48:24;;;;;;;19.23;11.27;;;8.90;93.70;;;;;;8399966;28;20435;-76
2021/04/11 05:52:32;;;;;;;22.17;12.40;;;8.90;93.70;;;;;;8398370;28;20503;-76
2021/04/11 05:56:43;;;;;;;18.57;11.00;;;8.80;93.60;;;;;;8405915;28;20960;-76
2021/04/11 06:00:50;;;;;;;24.20;10.93;;;8.80;93.40;;;;;;8398657;28;20433;-75
2021/04/11 06:04:58;;;;;;;15.43;9.70;;;8.70;93.50;;;;;;8408221;28;20933;-76
2021/04/11 06:09:07;;;;;;;22.50;11.17;;;8.70;93.30;;;;;;8405250;28;20576;-75
2021/04/11 06:13:13;;;;;;;14.47;8.13;;;8.60;93.10;;;;;;8399542;28;21081;-75
2021/04/11 06:17:16;;;;;;;14.40;8.10;;;8.50;93.00;;;;;;8393212;28;20446;-75
2021/04/11 06:21:46;;;;;;;14.40;8.77;;;8.30;92.60;;;;;;8404579;28;21015;-76
2021/04/11 06:26:11;;;;;;;15.00;8.87;;;8.20;93.00;;;;;;8396140;28;20828;-75
2021/04/11 06:30:35;;;;;;;11.63;7.93;;;8.10;92.90;;;;;;8405773;28;20440;-75
2021/04/11 06:34:41;;;;;;;16.10;9.80;;;8.10;92.90;;;;;;8406016;28;20898;-76
2021/04/11 06:38:48;;;;;;;16.03;8.27;;;8.00;92.80;;;;;;8398474;28;20440;-74
2021/04/11 06:42:51;;;;;;;14.50;8.50;;;8.00;92.60;;;;;;8397970;28;20444;-75
2021/04/11 06:47:18;;;;;;;15.20;8.63;;;7.90;92.60;;;;;;8405026;28;20540;-75
2021/04/11 06:51:34;;;;;;;16.67;9.30;;;7.80;92.80;;;;;;8400848;28;20956;-75
2021/04/11 06:56:00;;;;;;;14.90;9.10;;;7.70;92.80;;;;;;8392687;28;20578;-74
2021/04/11 07:00:30;;;;;;;15.77;9.40;;;7.70;93.00;;;;;;8399334;28;21236;-74
2021/04/11 07:05:07;;;;;;;17.57;10.53;;;7.70;93.10;;;;;;8398818;28;20530;-74
2021/04/11 07:09:30;;;;;;;21.23;11.07;;;7.70;93.20;;;;;;8394490;28;20992;-74
2021/04/11 07:14:10;;;;;;;20.57;10.97;;;7.70;93.10;;;;;;8401732;28;20538;-76
2021/04/11 07:18:37;;;;;;;21.50;11.70;;;7.70;93.20;;;;;;8401190;28;20441;-74
2021/04/11 07:23:06;;;;;;;17.30;7.77;;;7.70;93.30;;;;;;8418944;28;20451;-74
2021/04/11 07:27:22;;;;;;;13.30;8.30;;;7.70;93.10;;;;;;8402629;28;20452;-77
2021/04/11 07:31:44;;;;;;;13.83;8.67;;;7.70;93.10;;;;;;8393968;28;20442;-75
2021/04/11 07:36:11;;;;;;;15.00;8.03;;;7.70;92.90;;;;;;8408366;28;20449;-75
2021/04/11 07:40:53;;;;;;;15.53;7.93;;;7.60;93.00;;;;;;8403847;28;20448;-75
2021/04/11 07:45:19;;;;;;;19.30;8.93;;;7.60;93.00;;;;;;8383311;28;20475;-75
2021/04/11 07:49:31;;;;;;;8.73;5.93;;;7.60;93.20;;;;;;8405523;28;20441;-75
2021/04/11 07:53:47;;;;;;;11.70;7.13;;;7.50;93.00;;;;;;8401497;28;20437;-76
2021/04/11 07:58:39;;;;;;;13.67;7.20;;;7.50;92.90;;;;;;8397790;28;20860;-75
2021/04/11 08:03:01;;;;;;;14.10;6.70;;;7.50;93.10;;;;;;8364148;28;20439;-75
2021/04/11 08:07:17;;;;;;;10.13;5.63;;;7.60;93.00;;;;;;8396901;28;20444;-75
2021/04/11 08:11:37;;;;;;;12.83;6.20;;;7.60;93.00;;;;;;8399891;28;20838;-73
2021/04/11 08:16:02;;;;;;;9.10;5.10;;;7.60;92.80;;;;;;8398892;28;20439;-75
2021/04/11 08:20:33;;;;;;;6.73;3.40;;;7.50;92.50;;;;;;8416351;28;20429;-75
2021/04/11 08:24:52;;;;;;;5.63;4.13;;;7.40;92.20;;;;;;8396813;28;20552;-75
2021/04/11 08:28:52;;;;;;;3.67;3.20;;;7.40;92.30;;;;;;8399128;28;20541;-75
2021/04/11 08:32:59;;;;;;;6.33;3.47;;;7.40;92.50;;;;;;8400746;28;20433;-74
2021/04/11 08:37:30;;;;;;;4.57;3.63;;;7.40;92.50;;;;;;8403628;28;20205;-75
2021/04/11 08:42:04;;;;;;;4.73;4.23;;;7.50;92.60;;;;;;8407417;28;20444;-75
2021/04/11 08:46:28;;;;;;;4.90;3.80;;;7.50;92.40;;;;;;8379757;28;20458;-76
2021/04/11 08:50:45;;;;;;;5.20;4.13;;;7.50;92.60;;;;;;8409076;28;20947;-75
2021/04/11 08:55:31;;;;;;;3.33;3.10;;;7.50;92.50;;;;;;8415971;28;20848;-75
2021/04/11 08:59:50;;;;;;;4.40;3.70;;;7.50;92.40;;;;;;8362453;28;21054;-76
2021/04/11 09:03:57;;;;;;;6.33;3.53;;;7.50;92.10;;;;;;8398131;28;20829;-76
2021/04/11 09:08:32;;;;;;;4.80;4.20;;;7.40;92.10;;;;;;8406436;28;20968;-76
2021/04/11 09:13:04;;;;;;;7.83;3.73;;;7.40;92.30;;;;;;8392807;28;20432;-75
2021/04/11 09:17:37;;;;;;;3.20;2.50;;;7.40;92.00;;;;;;8401326;28;20433;-76
2021/04/11 09:22:18;;;;;;;3.87;2.47;;;7.30;92.00;;;;;;8392880;28;20524;-75
2021/04/11 09:26:46;;;;;;;2.60;2.37;;;7.20;92.00;;;;;;8398745;28;20471;-76
2021/04/11 09:31:08;;;;;;;3.93;2.40;;;7.10;91.90;;;;;;8401754;28;20446;-75
2021/04/11 09:35:30;;;;;;;2.70;2.00;;;7.20;91.80;;;;;;8403925;28;20500;-76
2021/04/11 09:40:12;;;;;;;2.20;2.10;;;7.30;91.50;;;;;;8411878;28;20450;-75
2021/04/11 09:44:26;;;;;;;2.80;2.40;;;7.20;91.30;;;;;;8403713;28;20459;-75
2021/04/11 09:49:00;;;;;;;3.33;3.03;;;7.10;91.40;;;;;;8397773;28;20473;-75
2021/04/11 09:53:37;;;;;;;2.70;2.43;;;7.00;91.00;;;;;;8407139;28;20498;-75
2021/04/11 09:57:43;;;;;;;3.80;2.70;;;6.90;91.60;;;;;;8344576;28;20445;-75
2021/04/11 10:02:08;;;;;;;2.03;1.77;;;6.70;91.20;;;;;;8416437;28;21244;-76
2021/04/11 10:06:41;;;;;;;2.70;2.30;;;6.60;91.40;;;;;;8419815;28;20526;-75
2021/04/11 10:11:21;;;;;;;6.60;1.97;;;6.60;91.70;;;;;;8391577;28;20475;-75
2021/04/11 10:15:38;;;;;;;1.63;1.53;;;6.70;91.60;;;;;;8392631;28;20484;-74
2021/04/11 10:20:06;;;;;;;2.07;1.80;;;6.60;91.50;;;;;;8390178;28;20441;-75
2021/04/11 10:24:25;;;;;;;1.97;1.70;;;6.60;91.70;;;;;;8401496;28;20503;-75
2021/04/11 10:28:43;;;;;;;1.90;1.80;;;6.70;92.00;;;;;;8397445;28;20456;-75
2021/04/11 10:33:15;;;;;;;1.93;1.80;;;6.70;91.80;;;;;;8391249;28;20515;-75
2021/04/11 10:37:27;;;;;;;1.77;1.67;;;6.80;91.70;;;;;;8390406;28;20475;-74
2021/04/11 10:41:32;;;;;;;4.23;3.07;;;6.80;91.60;;;;;;8395249;28;20440;-76
2021/04/11 10:46:00;;;;;;;3.07;2.40;;;6.80;91.70;;;;;;8400133;28;20651;-76
2021/04/11 10:50:34;;;;;;;3.83;3.40;;;6.80;91.20;;;;;;8386785;28;20859;-75
2021/04/11 10:54:55;;;;;;;4.37;3.30;;;6.70;90.90;;;;;;8404533;28;20527;-75
2021/04/11 10:59:14;;;;;;;3.80;2.60;;;6.60;91.50;;;;;;8406796;28;20454;-75
2021/04/11 11:03:55;;;;;;;3.50;1.87;;;6.70;91.50;;;;;;8399275;28;20479;-75
2021/04/11 11:08:22;;;;;;;2.47;2.33;;;6.60;91.60;;;;;;8395547;28;20456;-75
2021/04/11 11:12:47;;;;;;;2.17;2.00;;;6.60;91.80;;;;;;8395861;28;20929;-75
2021/04/11 11:17:12;;;;;;;1.63;1.43;;;6.70;91.80;;;;;;8408297;28;20440;-74
2021/04/11 11:21:52;;;;;;;2.47;2.27;;;6.80;91.70;;;;;;8388370;28;20808;-74
2021/04/11 11:26:19;;;;;;;1.30;1.20;;;6.80;91.40;;;;;;8401981;28;20517;-76
2021/04/11 11:30:58;;;;;;;7.73;4.10;;;6.70;91.30;;;;;;8397540;28;20432;-76
2021/04/11 11:35:09;;;;;;;2.97;2.70;;;6.60;91.30;;;;;;8387950;28;20501;-75
2021/04/11 11:39:43;;;;;;;1.90;1.70;;;6.60;91.60;;;;;;8392071;28;20444;-76
2021/04/11 11:44:13;;;;;;;2.40;2.30;;;6.70;91.80;;;;;;8386811;28;20506;-74
2021/04/11 11:48:45;;;;;;;2.70;2.33;;;6.70;91.80;;;;;;8385992;28;20439;-75
2021/04/11 11:53:02;;;;;;;2.80;2.60;;;6.70;91.80;;;;;;8402243;28;21016;-76
2021/04/11 11:57:19;;;;;;;2.03;1.90;;;6.80;92.00;;;;;;8399128;28;20459;-74
2021/04/11 12:01:23;;;;;;;2.43;2.23;;;6.90;91.90;;;;;;8401730;28;20439;-75
2021/04/11 12:05:38;;;;;;;2.53;2.33;;;7.00;91.90;;;;;;8394488;28;20463;-74
2021/04/11 12:10:22;;;;;;;2.60;2.40;;;7.10;91.40;;;;;;8384112;28;20492;-74
2021/04/11 12:14:45;;;;;;;3.00;2.80;;;6.90;91.20;;;;;;8391779;28;20440;-76
2021/04/11 12:19:01;;;;;;;3.87;3.57;;;6.80;91.30;;;;;;8396286;28;20440;-75
2021/04/11 12:23:37;;;;;;;4.40;4.10;;;6.70;91.70;;;;;;8385769;28;20487;-75
2021/04/11 12:27:52;;;;;;;4.40;4.00;;;6.70;91.70;;;;;;8393054;28;20467;-75
2021/04/11 12:32:08;;;;;;;6.60;5.37;;;6.70;91.60;;;;;;8389810;28;20477;-75
2021/04/11 12:36:41;;;;;;;8.60;7.70;;;6.60;92.10;;;;;;8387595;28;20520;-77
2021/04/11 12:40:49;;;;;;;9.63;8.33;;;6.80;92.60;;;;;;8385054;28;20463;-76
2021/04/11 12:45:17;;;;;;;7.37;6.43;;;7.10;92.80;;;;;;8397066;28;20566;-76
2021/04/11 12:50:12;;;;;;;7.80;7.10;;;7.30;92.20;;;;;;8390220;28;21135;-77
2021/04/11 12:54:48;;;;;;;4.53;4.13;;;7.40;92.00;;;;;;8410620;28;21368;-73
2021/04/11 12:59:18;;;;;;;10.67;8.77;;;7.50;91.70;;;;;;8403709;28;20493;-74
2021/04/11 13:03:43;;;;;;;11.70;10.10;;;7.70;92.00;;;;;;8382502;28;20477;-76
2021/04/11 13:07:58;;;;;;;9.10;7.70;;;7.80;91.50;;;;;;8402727;28;21282;-74
2021/04/11 13:12:05;;;;;;;5.37;4.93;;;8.10;91.30;;;;;;8420571;28;20433;-74
2021/04/11 13:16:23;;;;;;;2.90;2.70;;;8.30;91.10;;;;;;8405002;28;20470;-74
2021/04/11 13:20:41;;;;;;;3.30;3.10;;;8.40;90.60;;;;;;8390623;28;20458;-75
2021/04/11 13:25:02;;;;;;;5.30;4.80;;;8.20;90.00;;;;;;8399728;28;20543;-76
2021/04/11 13:29:26;;;;;;;8.40;7.37;;;8.00;90.60;;;;;;8422832;28;20451;-75
2021/04/11 13:33:36;;;;;;;11.70;9.60;;;8.00;90.90;;;;;;8406492;28;20472;-77
2021/04/11 13:37:48;;;;;;;13.03;10.53;;;8.00;90.60;;;;;;8400082;28;20444;-75
2021/04/11 13:41:51;;;;;;;14.47;11.17;;;8.10;90.80;;;;;;8396283;28;20441;-76
2021/04/11 13:46:18;;;;;;;13.10;11.40;;;8.20;90.90;;;;;;8412368;28;20452;-75
2021/04/11 13:50:45;;;;;;;15.10;12.90;;;8.40;91.20;;;;;;8414464;28;20436;-79
2021/04/11 13:55:12;;;;;;;19.30;14.13;;;8.50;90.70;;;;;;8396518;28;20439;-74
2021/04/11 13:59:30;;;;;;;70.63;40.27;;;8.50;90.40;;;;;;8394417;28;20447;-74
2021/04/11 14:03:46;;;;;;;64.83;38.00;;;8.30;90.60;;;;;;8402741;28;20448;-76
2021/04/11 14:08:12;;;;;;;28.43;18.90;;;8.20;90.90;;;;;;8411309;28;21086;-75
2021/04/11 14:12:20;;;;;;;11.93;10.67;;;8.20;91.20;;;;;;8411694;28;20505;-75
2021/04/11 14:16:55;;;;;;;17.43;11.60;;;8.30;90.80;;;;;;8398531;28;20454;-75
2021/04/11 14:21:35;;;;;;;13.17;10.97;;;8.20;90.70;;;;;;8407050;28;20445;-76
2021/04/11 14:25:42;;;;;;;15.70;10.70;;;7.90;90.20;;;;;;8398628;28;20509;-75
2021/04/11 14:30:07;;;;;;;10.63;8.13;;;7.70;90.70;;;;;;8422832;28;20470;-76
2021/04/11 14:34:33;;;;;;;31.13;18.43;;;7.60;91.30;;;;;;8400937;28;20443;-75
2021/04/11 14:39:09;;;;;;;73.07;41.07;;;7.60;91.60;;;;;;8395865;28;20451;-76
2021/04/11 14:43:49;;;;;;;58.20;31.73;;;7.80;91.50;;;;;;8385691;28;20452;-76
2021/04/11 14:48:13;;;;;;;75.53;42.93;;;8.00;91.40;;;;;;8322859;28;20445;-74
2021/04/11 14:52:39;;;;;;;37.83;26.13;;;8.10;91.30;;;;;;8390453;28;20448;-75
2021/04/11 14:56:52;;;;;;;34.47;20.40;;;8.10;91.00;;;;;;8407499;28;20534;-75
2021/04/11 15:01:23;;;;;;;26.93;16.60;;;7.90;90.80;;;;;;8401658;28;20445;-73
2021/04/11 15:05:48;;;;;;;31.93;18.73;;;7.90;91.10;;;;;;8390994;28;20482;-74
2021/04/11 15:10:17;;;;;;;27.60;18.07;;;7.80;91.10;;;;;;8399671;28;20509;-76
2021/04/11 15:14:56;;;;;;;21.63;14.20;;;7.80;91.20;;;;;;8412400;28;20428;-75
2021/04/11 15:19:22;;;;;;;23.20;15.33;;;7.70;91.20;;;;;;8402316;28;21059;-75
2021/04/11 15:23:47;;;;;;;21.87;14.10;;;7.60;91.40;;;;;;8398972;28;20476;-74
2021/04/11 15:28:11;;;;;;;21.23;17.00;;;7.60;91.40;;;;;;8404214;28;20493;-77
2021/04/11 15:32:19;;;;;;;32.97;20.23;;;7.60;91.30;;;;;;8393763;28;20456;-76
2021/04/11 15:36:55;;;;;;;28.37;18.33;;;7.50;91.50;;;;;;8398664;28;20466;-75
2021/04/11 15:41:11;;;;;;;25.27;16.03;;;7.50;91.50;;;;;;8408317;28;20436;-80
2021/04/11 15:45:37;;;;;;;27.00;16.10;;;7.50;91.30;;;;;;8403775;28;20465;-75
2021/04/11 15:49:44;;;;;;;24.87;16.37;;;7.50;91.70;;;;;;8401640;28;20439;-80
2021/04/11 15:54:24;;;;;;;29.03;17.53;;;7.60;92.00;;;;;;8388972;28;20463;-75
2021/04/11 15:58:45;;;;;;;31.20;17.70;;;7.70;91.70;;;;;;8362094;28;20436;-77
2021/04/11 16:02:53;;;;;;;29.80;18.50;;;7.70;91.60;;;;;;8399259;28;21050;-75
2021/04/11 16:07:16;;;;;;;32.60;19.13;;;7.60;91.60;;;;;;8396560;28;20559;-75
2021/04/11 16:11:40;;;;;;;29.97;17.20;;;7.70;91.80;;;;;;8398421;28;20444;-76
2021/04/11 16:15:51;;;;;;;24.90;14.37;;;7.70;91.60;;;;;;8386224;28;21028;-75
2021/04/11 16:20:11;;;;;;;29.07;16.60;;;7.70;91.40;;;;;;8392578;28;20542;-74
2021/04/11 16:24:55;;;;;;;31.60;19.93;;;7.70;91.60;;;;;;8392799;28;20628;-75
2021/04/11 16:29:12;;;;;;;30.60;18.20;;;7.70;91.60;;;;;;8371776;28;20730;-75
2021/04/11 16:33:58;;;;;;;24.60;14.90;;;7.80;91.90;;;;;;8394451;28;20520;-77
2021/04/11 16:38:19;;;;;;;14.37;10.57;;;7.80;91.70;;;;;;8374847;28;20441;-75
2021/04/11 16:42:36;;;;;;;14.53;11.27;;;7.80;91.70;;;;;;8399449;28;20449;-75
2021/04/11 16:47:02;;;;;;;10.77;8.73;;;7.80;91.70;;;;;;8398499;28;20802;-77
2021/04/11 16:51:09;;;;;;;11.60;8.73;;;7.80;91.90;;;;;;8411100;28;20461;-80
2021/04/11 16:55:25;;;;;;;11.50;8.73;;;7.80;91.70;;;;;;8396441;28;20467;-78
2021/04/11 16:59:38;;;;;;;19.33;14.53;;;7.80;91.80;;;;;;8391062;28;20463;-79
2021/04/11 17:04:06;;;;;;;10.80;8.30;;;7.80;91.90;;;;;;8406230;28;20463;-74
2021/04/11 17:08:19;;;;;;;15.60;10.20;;;7.80;91.70;;;;;;8403832;28;20468;-75
2021/04/11 17:12:41;;;;;;;15.37;11.30;;;7.70;91.80;;;;;;8399222;28;20474;-76
2021/04/11 17:17:22;;;;;;;15.00;10.10;;;7.70;92.00;;;;;;8403036;28;20503;-76
2021/04/11 17:21:43;;;;;;;17.07;11.40;;;7.60;92.10;;;;;;8400294;28;20432;-75
2021/04/11 17:26:07;;;;;;;19.40;13.63;;;7.60;92.00;;;;;;8393894;28;20466;-75
2021/04/11 17:30:12;;;;;;;15.73;10.20;;;7.50;92.00;;;;;;8389723;28;20462;-76
2021/04/11 17:34:51;;;;;;;16.50;9.40;;;7.50;92.20;;;;;;8380736;28;20444;-75
2021/04/11 17:39:15;;;;;;;18.40;11.47;;;7.50;92.40;;;;;;8406058;28;20450;-74
2021/04/11 17:43:29;;;;;;;20.10;11.10;;;7.40;92.50;;;;;;8411396;28;20443;-75
2021/04/11 17:47:49;;;;;;;37.83;27.83;;;7.50;92.60;;;;;;8404947;28;20475;-76
2021/04/11 17:52:18;;;;;;;51.63;43.07;;;7.50;92.70;;;;;;8403727;28;21130;-76
2021/04/11 17:56:40;;;;;;;15.90;11.90;;;7.50;92.60;;;;;;8404740;28;21213;-78
2021/04/11 18:01:22;;;;;;;20.27;13.60;;;7.50;92.50;;;;;;8405204;28;20540;-77
2021/04/11 18:05:36;;;;;;;20.43;15.97;;;7.40;92.50;;;;;;8418378;28;20554;-77
2021/04/11 18:10:05;;;;;;;14.90;11.40;;;7.40;92.50;;;;;;8411234;28;20452;-78
2021/04/11 18:14:30;;;;;;;16.73;12.60;;;7.40;92.40;;;;;;8408804;28;20516;-76
2021/04/11 18:19:16;;;;;;;22.57;13.80;;;7.30;92.30;;;;;;8399362;28;20436;-76
2021/04/11 18:23:27;;;;;;;19.30;11.30;;;7.20;92.30;;;;;;8394810;28;20542;-76
2021/04/11 18:27:41;;;;;;;17.73;11.97;;;7.10;92.30;;;;;;8406545;28;20849;-75
2021/04/11 18:31:46;;;;;;;17.90;12.73;;;7.10;92.40;;;;;;8397862;28;20447;-76
2021/04/11 18:36:03;;;;;;;14.30;9.70;;;7.10;92.40;;;;;;8404478;28;20458;-75
2021/04/11 18:40:27;;;;;;;17.17;12.32;;;7.00;92.50;;;;;;8409443;28;20431;-76
2021/04/11 18:44:40;;;;;;;17.40;11.37;;;6.90;92.60;;;;;;8404289;28;20205;-75
2021/04/11 18:49:11;;;;;;;20.40;11.97;;;6.90;92.80;;;;;;8410615;28;20436;-75
2021/04/11 18:53:53;;;;;;;16.93;12.47;;;6.90;92.80;;;;;;8397748;28;20444;-74
2021/04/11 18:58:36;;;;;;;20.90;11.27;;;6.90;92.90;;;;;;8363272;28;20436;-77
2021/04/11 19:03:03;;;;;;;14.90;10.97;;;6.90;92.90;;;;;;8397584;28;20440;-75
2021/04/11 19:07:18;;;;;;;12.90;10.20;;;6.90;93.00;;;;;;8414359;28;20440;-76
2021/04/11 19:11:58;;;;;;;12.63;8.60;;;6.90;93.00;;;;;;8403073;28;20440;-76
2021/04/11 19:16:06;;;;;;;14.13;8.37;;;6.90;93.00;;;;;;8424314;28;21023;-75
2021/04/11 19:20:17;;;;;;;7.37;6.63;;;6.90;93.00;;;;;;8404186;28;20952;-74
2021/04/11 19:24:50;;;;;;;17.50;8.60;;;6.90;93.00;;;;;;8412551;28;20472;-77
2021/04/11 19:29:21;;;;;;;8.40;7.50;;;6.90;92.80;;;;;;8423645;28;20444;-75
2021/04/11 19:33:49;;;;;;;16.20;9.43;;;6.90;92.80;;;;;;8395008;28;20445;-76
2021/04/11 19:38:28;;;;;;;10.80;8.40;;;6.90;92.80;;;;;;8406780;28;20479;-76
2021/04/11 19:43:11;;;;;;;10.17;6.47;;;6.90;92.80;;;;;;8397060;28;20443;-77
2021/04/11 19:48:00;;;;;;;9.53;6.70;;;6.80;92.60;;;;;;8400688;28;20531;-76
2021/04/11 19:52:41;;;;;;;8.70;7.23;;;6.70;92.50;;;;;;8419911;28;20506;-77
2021/04/11 19:57:20;;;;;;;11.97;7.70;;;6.70;92.40;;;;;;8410000;28;20454;-78
2021/04/11 20:02:09;;;;;;;13.73;7.43;;;6.60;92.40;;;;;;8415451;28;20456;-79
2021/04/11 20:06:56;;;;;;;13.20;8.20;;;6.60;92.50;;;;;;8406622;28;20470;-75
2021/04/11 20:11:41;;;;;;;10.83;6.80;;;6.60;92.60;;;;;;8413182;28;20554;-76
2021/04/11 20:15:48;;;;;;;11.03;7.83;;;6.60;92.70;;;;;;8389350;28;20452;-76
2021/04/11 20:20:29;;;;;;;12.93;9.40;;;6.60;92.80;;;;;;8399219;28;20462;-77
2021/04/11 20:25:18;;;;;;;16.13;9.60;;;6.60;92.90;;;;;;8333207;28;20483;-74
2021/04/11 20:29:47;;;;;;;13.43;8.73;;;6.60;93.00;;;;;;8424247;28;20470;-76
2021/04/11 20:34:10;;;;;;;16.23;9.37;;;6.60;93.00;;;;;;8415249;28;20452;-75
2021/04/11 20:38:30;;;;;;;13.80;8.80;;;6.60;93.30;;;;;;8394543;28;20444;-74
2021/04/11 20:42:56;;;;;;;13.37;9.67;;;6.70;93.00;;;;;;8387451;28;20441;-76
2021/04/11 20:47:39;;;;;;;16.13;8.10;;;6.70;92.90;;;;;;8391929;28;20468;-75
2021/04/11 20:52:00;;;;;;;11.43;7.10;;;6.70;92.80;;;;;;8387492;28;20440;-75
2021/04/11 20:56:26;;;;;;;10.50;8.57;;;6.70;92.80;;;;;;8389156;28;20455;-75
2021/04/11 21:00:45;;;;;;;10.00;7.80;;;6.70;92.70;;;;;;8393704;28;21245;-75
2021/04/11 21:05:06;;;;;;;11.83;9.50;;;6.60;92.70;;;;;;8391126;28;20467;-76
2021/04/11 21:09:22;;;;;;;18.43;9.30;;;6.60;92.70;;;;;;8389361;28;20466;-75
2021/04/11 21:13:33;;;;;;;14.10;8.40;;;6.60;92.70;;;;;;8409390;28;20479;-75
2021/04/11 21:17:51;;;;;;;12.73;9.27;;;6.60;92.70;;;;;;8395090;28;21571;-75
2021/04/11 21:22:27;;;;;;;18.30;10.17;;;6.50;92.60;;;;;;8392972;28;20448;-75
2021/04/11 21:27:00;;;;;;;12.40;9.00;;;6.50;92.60;;;;;;8363922;28;20472;-75
2021/04/11 21:31:39;;;;;;;16.50;9.07;;;6.40;92.60;;;;;;8397463;28;20455;-75
2021/04/11 21:35:53;;;;;;;10.43;7.93;;;6.30;92.50;;;;;;8402740;28;21089;-75
2021/04/11 21:40:10;;;;;;;14.97;9.37;;;6.30;92.60;;;;;;8402570;28;20823;-75
2021/04/11 21:44:17;;;;;;;12.87;9.80;;;6.20;92.60;;;;;;8401107;28;20475;-73
2021/04/11 21:48:45;;;;;;;11.80;8.37;;;6.20;92.60;;;;;;8397499;28;21395;-74
2021/04/11 21:53:00;;;;;;;17.60;11.63;;;6.20;92.70;;;;;;8399785;28;20486;-76
2021/04/11 21:57:44;;;;;;;17.60;11.90;;;6.10;92.80;;;;;;8397877;28;20899;-75
2021/04/11 22:01:45;;;;;;;16.20;11.07;;;6.10;92.70;;;;;;8395939;28;20517;-73
2021/04/11 22:06:19;;;;;;;16.10;10.03;;;6.00;92.60;;;;;;8407419;28;20461;-76
2021/04/11 22:10:37;;;;;;;15.93;9.00;;;5.90;92.40;;;;;;8406559;28;20213;-74
2021/04/11 22:14:49;;;;;;;12.10;9.10;;;5.90;92.40;;;;;;8396830;28;20444;-75
2021/04/11 22:18:53;;;;;;;11.37;8.67;;;5.80;92.50;;;;;;8406730;28;20966;-75
2021/04/11 22:23:13;;;;;;;13.57;8.63;;;5.70;92.50;;;;;;8405292;28;20443;-75
2021/04/11 22:27:44;;;;;;;14.63;7.00;;;5.70;92.40;;;;;;8413091;28;20482;-75
2021/04/11 22:31:51;;;;;;;13.10;7.60;;;5.60;92.60;;;;;;8419738;28;20466;-74